createdAt,value
2023-01-17T00:00:29.516Z,1.78
2023-01-17T00:02:59.160Z,1.73
2023-01-17T00:05:45.101Z,1.75
2023-01-17T00:08:32.020Z,1.79
2023-01-17T00:11:00.361Z,1.85
2023-01-17T00:13:28.585Z,1.99
2023-01-17T00:15:57.215Z,2.05
2023-01-17T00:18:25.456Z,2.09
2023-01-17T00:21:10.759Z,2.12
2023-01-17T00:23:56.717Z,2.22
2023-01-17T00:26:25.168Z,2.24
2023-01-17T00:28:52.084Z,2.28
2023-01-17T00:31:20.231Z,2.28
2023-01-17T00:33:47.197Z,2.33
2023-01-17T00:36:14.132Z,2.33
2023-01-17T00:38:42.467Z,2.43
2023-01-17T00:41:11.173Z,2.43
2023-01-17T00:43:56.724Z,2.45
2023-01-17T00:46:42.805Z,2.47
2023-01-17T00:49:28.233Z,2.39
2023-01-17T00:52:14.112Z,2.41
2023-01-17T00:55:01.068Z,2.39
2023-01-17T00:57:46.160Z,2.44
2023-01-17T01:00:32.527Z,2.47
2023-01-17T01:03:17.818Z,2.50
2023-01-17T01:06:03.678Z,2.57
2023-01-17T01:08:49.463Z,2.53
2023-01-17T01:11:39.385Z,2.57
2023-01-17T01:14:26.371Z,2.58
2023-01-17T01:17:12.308Z,2.60
2023-01-17T01:19:58.239Z,2.57
2023-01-17T01:22:43.942Z,2.60
2023-01-17T01:25:29.721Z,2.51
2023-01-17T01:28:24.352Z,2.51
2023-01-17T01:31:09.672Z,2.44
2023-01-17T01:33:38.006Z,2.22
2023-01-17T01:36:09.141Z,2.18
2023-01-17T01:38:37.454Z,2.08
2023-01-17T01:41:06.057Z,2.08
2023-01-17T01:43:47.593Z,2.06
2023-01-17T01:46:19.533Z,2.06
2023-01-17T01:48:51.684Z,2.11
2023-01-17T01:51:26.381Z,2.07
2023-01-17T01:53:59.969Z,2.09
2023-01-17T01:56:30.315Z,1.93
2023-01-17T01:59:04.328Z,2.03
2023-01-17T02:01:32.905Z,2.04
2023-01-17T02:04:01.319Z,2.05
2023-01-17T02:06:33.705Z,2.09
2023-01-17T02:09:08.522Z,2.15
2023-01-17T02:11:38.758Z,2.16
2023-01-17T02:14:08.675Z,2.08
2023-01-17T02:16:50.094Z,2.13
2023-01-17T02:19:44.695Z,2.14
2023-01-17T02:22:39.338Z,2.12
2023-01-17T02:25:36.025Z,2.08
2023-01-17T02:28:19.982Z,2.06
2023-01-17T02:30:55.006Z,1.98
2023-01-17T02:33:33.273Z,2.03
2023-01-17T02:36:12.199Z,1.98
2023-01-17T02:38:50.568Z,1.99
2023-01-17T02:41:23.369Z,2.00
2023-01-17T02:43:52.379Z,1.96
2023-01-17T02:46:21.936Z,1.92
2023-01-17T02:48:51.901Z,1.91
2023-01-17T02:51:46.126Z,1.92
2023-01-17T02:54:49.059Z,1.89
2023-01-17T02:57:30.860Z,1.85
2023-01-17T03:00:04.091Z,1.76
2023-01-17T03:02:42.150Z,1.80
2023-01-17T03:05:15.541Z,1.71
2023-01-17T03:07:44.632Z,1.74
2023-01-17T03:10:16.074Z,1.67
2023-01-17T03:12:44.879Z,1.78
2023-01-17T03:15:14.197Z,1.76
2023-01-17T03:17:48.157Z,1.78
2023-01-17T03:20:16.650Z,1.74
2023-01-17T03:22:44.658Z,1.76
2023-01-17T03:25:12.811Z,1.76
2023-01-17T03:27:40.966Z,1.81
2023-01-17T03:30:10.431Z,1.86
2023-01-17T03:32:38.600Z,1.87
2023-01-17T03:35:09.027Z,1.92
2023-01-17T03:37:37.155Z,1.91
2023-01-17T03:40:05.944Z,1.88
2023-01-17T03:42:34.146Z,1.91
2023-01-17T03:45:02.224Z,1.94
2023-01-17T03:47:30.495Z,1.88
2023-01-17T03:49:58.536Z,1.95
2023-01-17T03:52:28.248Z,1.92
2023-01-17T03:54:56.421Z,1.92
2023-01-17T03:57:24.590Z,1.90
2023-01-17T03:59:52.697Z,1.89
2023-01-17T04:02:20.905Z,1.85
2023-01-17T04:04:48.917Z,1.90
2023-01-17T04:07:17.090Z,1.95
2023-01-17T04:09:46.624Z,1.88
2023-01-17T04:12:14.655Z,1.88
2023-01-17T04:14:42.872Z,1.90
2023-01-17T04:17:13.358Z,1.93
2023-01-17T04:19:42.255Z,1.89
2023-01-17T04:22:10.516Z,1.85
2023-01-17T04:24:38.628Z,1.83
2023-01-17T04:27:08.228Z,1.84
2023-01-17T04:29:36.383Z,1.79
2023-01-17T04:32:04.677Z,1.81
2023-01-17T04:34:33.127Z,1.77
2023-01-17T04:37:01.354Z,1.70
2023-01-17T04:39:29.486Z,1.71
2023-01-17T04:41:57.708Z,1.69
2023-01-17T04:44:27.549Z,1.66
2023-01-17T04:46:55.560Z,1.68
2023-01-17T04:49:23.705Z,1.67
2023-01-17T04:51:51.893Z,1.61
2023-01-17T04:54:20.160Z,1.58
2023-01-17T04:56:49.184Z,1.58
2023-01-17T04:59:17.431Z,1.59
2023-01-17T05:01:49.042Z,1.60
2023-01-17T05:04:17.413Z,1.57
2023-01-17T05:06:45.975Z,1.59
2023-01-17T05:09:14.140Z,1.55
2023-01-17T05:11:42.503Z,1.55
2023-01-17T05:14:11.185Z,1.53
2023-01-17T05:16:39.483Z,1.58
2023-01-17T05:19:09.242Z,1.56
2023-01-17T05:21:37.477Z,1.57
2023-01-17T05:24:06.132Z,1.60
2023-01-17T05:26:34.422Z,1.53
2023-01-17T05:29:02.711Z,1.57
2023-01-17T05:31:30.863Z,1.48
2023-01-17T05:33:59.142Z,1.52
2023-01-17T05:36:28.738Z,1.51
2023-01-17T05:38:56.942Z,1.49
2023-01-17T05:41:25.198Z,1.49
2023-01-17T05:43:53.469Z,1.42
2023-01-17T05:46:21.754Z,1.43
2023-01-17T05:48:49.988Z,1.44
2023-01-17T05:51:18.102Z,1.40
2023-01-17T05:53:47.735Z,1.39
2023-01-17T05:56:15.980Z,1.32
2023-01-17T05:58:47.171Z,1.34
2023-01-17T06:01:15.329Z,1.33
2023-01-17T06:03:43.461Z,1.29
2023-01-17T06:06:11.608Z,1.23
2023-01-17T06:08:39.785Z,1.20
2023-01-17T06:11:09.499Z,1.27
2023-01-17T06:13:37.668Z,1.20
2023-01-17T06:16:06.395Z,1.18
2023-01-17T06:18:34.978Z,1.24
2023-01-17T06:21:03.079Z,1.20
2023-01-17T06:23:31.371Z,1.21
2023-01-17T06:26:03.040Z,1.18
2023-01-17T06:28:32.743Z,1.19
2023-01-17T06:31:01.302Z,1.12
2023-01-17T06:33:29.476Z,1.18
2023-01-17T06:35:57.693Z,1.14
2023-01-17T06:38:27.390Z,1.14
2023-01-17T06:40:55.628Z,1.08
2023-01-17T06:43:23.803Z,1.07
2023-01-17T06:45:53.607Z,1.08
2023-01-17T06:48:21.966Z,1.04
2023-01-17T06:50:50.054Z,1.06
2023-01-17T06:53:18.278Z,1.07
2023-01-17T06:55:46.471Z,1.10
2023-01-17T06:58:14.706Z,1.12
2023-01-17T07:00:43.039Z,1.06
2023-01-17T07:03:19.298Z,1.06
2023-01-17T07:05:47.793Z,1.04
2023-01-17T07:08:17.182Z,0.99
2023-01-17T07:10:45.820Z,0.96
2023-01-17T07:13:14.569Z,0.95
2023-01-17T07:15:42.742Z,0.90
2023-01-17T07:18:10.935Z,0.92
2023-01-17T07:20:41.502Z,0.89
2023-01-17T07:23:09.673Z,0.89
2023-01-17T07:25:37.824Z,0.90
2023-01-17T07:28:05.911Z,0.83
2023-01-17T07:30:34.304Z,0.82
2023-01-17T07:33:02.864Z,0.88
2023-01-17T07:35:30.958Z,0.82
2023-01-17T07:38:00.520Z,0.78
2023-01-17T07:40:28.638Z,0.80
2023-01-17T07:43:02.782Z,0.72
2023-01-17T07:45:31.060Z,0.78
2023-01-17T07:47:59.508Z,0.66
2023-01-17T07:50:30.425Z,0.63
2023-01-17T07:53:00.330Z,0.64
2023-01-17T07:55:32.419Z,0.65
2023-01-17T07:58:03.156Z,0.64
2023-01-17T08:00:32.178Z,0.59
2023-01-17T08:03:01.305Z,0.59
2023-01-17T08:05:31.740Z,0.56
2023-01-17T08:08:00.880Z,0.52
2023-01-17T08:10:31.707Z,0.53
2023-01-17T08:13:00.463Z,0.55
2023-01-17T08:15:28.950Z,0.55
2023-01-17T08:17:57.825Z,0.51
2023-01-17T08:20:30.935Z,0.57
2023-01-17T08:22:59.408Z,0.54
2023-01-17T08:25:28.846Z,0.51
2023-01-17T08:28:00.009Z,0.59
2023-01-17T08:30:29.267Z,0.61
2023-01-17T08:32:58.243Z,0.59
2023-01-17T08:35:28.458Z,0.61
2023-01-17T08:38:00.754Z,0.60
2023-01-17T08:40:29.669Z,0.64
2023-01-17T08:43:01.082Z,0.61
2023-01-17T08:45:31.145Z,0.67
2023-01-17T08:48:00.176Z,0.66
2023-01-17T08:50:30.103Z,0.66
2023-01-17T08:53:01.378Z,0.72
2023-01-17T08:55:30.942Z,0.76
2023-01-17T08:58:00.944Z,0.75
2023-01-17T09:00:30.187Z,0.79
2023-01-17T09:02:58.566Z,0.81
2023-01-17T09:05:28.469Z,0.83
2023-01-17T09:07:57.883Z,0.87
2023-01-17T09:10:27.783Z,0.85
2023-01-17T09:12:59.738Z,0.92
2023-01-17T09:15:33.610Z,0.95
2023-01-17T09:18:02.590Z,0.96
2023-01-17T09:20:32.597Z,0.93
2023-01-17T09:23:04.115Z,0.94
2023-01-17T09:25:33.133Z,0.90
2023-01-17T09:28:03.783Z,1.00
2023-01-17T09:30:37.047Z,0.96
2023-01-17T09:33:07.169Z,1.01
2023-01-17T09:35:41.378Z,1.00
2023-01-17T09:38:10.336Z,1.06
2023-01-17T09:40:40.805Z,1.02
2023-01-17T09:43:21.335Z,1.02
2023-01-17T09:45:52.704Z,1.09
2023-01-17T09:48:30.196Z,1.07
2023-01-17T09:51:03.778Z,1.14
2023-01-17T09:53:37.708Z,1.16
2023-01-17T09:56:12.625Z,1.21
2023-01-17T09:58:47.433Z,1.20
2023-01-17T10:01:31.512Z,1.24
2023-01-17T10:04:16.506Z,1.28
2023-01-17T10:06:58.110Z,1.33
2023-01-17T10:09:50.081Z,1.38
2023-01-17T10:12:30.959Z,1.33
2023-01-17T10:15:31.901Z,1.42
2023-01-17T10:18:29.114Z,1.49
2023-01-17T10:21:03.307Z,1.55
2023-01-17T10:23:48.370Z,1.64
2023-01-17T10:26:19.156Z,1.69
2023-01-17T10:28:51.364Z,1.73
2023-01-17T10:31:24.749Z,1.79
2023-01-17T10:33:55.975Z,1.90
2023-01-17T10:36:26.291Z,1.93
2023-01-17T10:38:57.322Z,1.91
2023-01-17T10:41:30.464Z,2.03
2023-01-17T10:44:11.648Z,2.18
2023-01-17T10:46:44.469Z,2.22
2023-01-17T10:49:19.295Z,2.33
2023-01-17T10:52:10.490Z,2.40
2023-01-17T10:54:54.448Z,2.52
2023-01-17T10:57:25.442Z,2.68
2023-01-17T10:59:58.630Z,2.71
2023-01-17T11:02:31.315Z,2.82
2023-01-17T11:05:12.490Z,2.86
2023-01-17T11:07:44.209Z,2.89
2023-01-17T11:10:50.099Z,2.87
2023-01-17T11:13:26.531Z,2.81
2023-01-17T11:16:01.030Z,2.87
2023-01-17T11:18:31.917Z,2.89
2023-01-17T11:21:16.964Z,2.89
2023-01-17T11:23:49.470Z,2.93
2023-01-17T11:26:28.636Z,3.00
2023-01-17T11:29:18.834Z,3.00
2023-01-17T11:31:48.080Z,3.07
2023-01-17T11:34:20.678Z,3.20
2023-01-17T11:36:53.722Z,3.25
2023-01-17T11:39:31.274Z,3.20
2023-01-17T11:42:01.896Z,3.24
2023-01-17T11:44:35.099Z,3.25
2023-01-17T11:47:17.226Z,3.36
2023-01-17T11:49:48.947Z,3.42
2023-01-17T11:52:26.276Z,3.43
2023-01-17T11:54:57.930Z,3.48
2023-01-17T11:57:37.457Z,3.49
2023-01-17T12:00:23.707Z,3.50
2023-01-17T12:03:30.598Z,3.58
2023-01-17T12:06:26.161Z,3.60
2023-01-17T12:12:56.742Z,3.74
2023-01-17T12:16:01.422Z,3.69
2023-01-17T12:18:36.361Z,3.78
2023-01-17T12:21:21.368Z,3.78
2023-01-17T12:24:08.300Z,3.84
2023-01-17T12:26:41.903Z,3.85
2023-01-17T12:29:45.407Z,3.91
2023-01-17T12:32:41.164Z,3.91
2023-01-17T12:35:16.437Z,3.94
2023-01-17T12:38:00.300Z,3.94
2023-01-17T12:40:36.878Z,3.96
2023-01-17T12:43:13.141Z,3.98
2023-01-17T12:45:46.020Z,4.01
2023-01-17T12:48:18.226Z,4.05
2023-01-17T12:50:53.089Z,4.00
2023-01-17T12:53:35.465Z,4.03
2023-01-17T12:56:10.694Z,4.05
2023-01-17T12:58:42.975Z,4.03
2023-01-17T13:01:21.714Z,4.05
2023-01-17T13:04:05.118Z,4.05
2023-01-17T13:06:44.401Z,4.05
2023-01-17T13:09:18.466Z,4.08
2023-01-17T13:11:53.035Z,3.97
2023-01-17T13:14:21.914Z,3.96
2023-01-17T13:16:58.257Z,4.01
2023-01-17T13:19:34.953Z,3.93
2023-01-17T13:22:08.130Z,3.93
2023-01-17T13:24:46.667Z,3.95
2023-01-17T13:27:32.732Z,3.80
2023-01-17T13:30:16.398Z,3.83
2023-01-17T13:33:01.689Z,3.73
2023-01-17T13:35:42.970Z,3.63
2023-01-17T13:38:25.945Z,3.81
2023-01-17T13:40:58.531Z,3.73
2023-01-17T13:43:30.436Z,3.75
2023-01-17T13:46:03.438Z,3.73
2023-01-17T13:48:37.372Z,3.57
2023-01-17T13:51:06.364Z,3.67
2023-01-17T13:53:48.107Z,3.56
2023-01-17T13:56:25.141Z,3.58
2023-01-17T13:58:59.296Z,3.56
2023-01-17T14:01:55.645Z,3.57
2023-01-17T14:04:26.169Z,3.54
2023-01-17T14:06:58.052Z,3.41
2023-01-17T14:09:31.143Z,3.48
2023-01-17T14:12:03.637Z,3.51
2023-01-17T14:14:52.909Z,3.57
2023-01-17T14:17:48.930Z,3.60
2023-01-17T14:21:07.762Z,3.59
2023-01-17T14:23:51.688Z,3.57
2023-01-17T14:26:33.832Z,3.55
2023-01-17T14:29:34.944Z,3.55
2023-01-17T14:32:04.088Z,3.50
2023-01-17T14:34:34.731Z,3.55
2023-01-17T14:37:07.811Z,3.54
2023-01-17T14:39:46.542Z,3.54
2023-01-17T14:42:18.604Z,3.51
2023-01-17T14:44:49.413Z,3.50
2023-01-17T14:47:21.360Z,3.42
2023-01-17T14:49:49.403Z,3.42
2023-01-17T14:52:19.182Z,3.36
2023-01-17T14:54:52.908Z,3.36
2023-01-17T14:57:28.021Z,3.34
2023-01-17T15:00:14.983Z,3.26
2023-01-17T15:02:44.666Z,3.22
2023-01-17T15:05:17.425Z,3.28
2023-01-17T15:07:48.684Z,3.22
2023-01-17T15:10:21.952Z,3.19
2023-01-17T15:12:50.171Z,3.18
2023-01-17T15:15:33.053Z,3.17
2023-01-17T15:18:19.476Z,3.19
2023-01-17T15:20:54.701Z,3.17
2023-01-17T15:23:24.710Z,3.16
2023-01-17T15:25:55.351Z,3.14
2023-01-17T15:28:23.499Z,3.11
2023-01-17T15:31:19.046Z,3.09
2023-01-17T15:33:49.249Z,3.05
2023-01-17T15:36:27.430Z,3.05
2023-01-17T15:39:00.277Z,3.04
2023-01-17T15:41:32.761Z,3.04
2023-01-17T15:44:01.535Z,2.99
2023-01-17T15:46:33.093Z,2.94
2023-01-17T15:49:09.317Z,2.92
2023-01-17T15:51:41.672Z,2.89
2023-01-17T15:54:34.647Z,2.91
2023-01-17T15:57:07.453Z,2.85
2023-01-17T15:59:45.567Z,2.83
2023-01-17T16:02:55.413Z,2.83
2023-01-17T16:05:46.325Z,2.79
2023-01-17T16:08:38.651Z,2.72
2023-01-17T16:11:15.782Z,2.67
2023-01-17T16:13:48.831Z,2.56
2023-01-17T16:16:24.032Z,2.61
2023-01-17T16:19:01.234Z,2.49
2023-01-17T16:21:31.318Z,2.51
2023-01-17T16:24:00.970Z,2.48
2023-01-17T16:26:29.877Z,2.41
2023-01-17T16:28:59.427Z,2.37
2023-01-17T16:31:28.936Z,2.35
2023-01-17T16:33:57.004Z,2.32
2023-01-17T16:36:25.111Z,2.25
2023-01-17T16:38:53.611Z,2.23
2023-01-17T16:41:22.033Z,2.21
2023-01-17T16:44:00.449Z,2.12
2023-01-17T16:46:29.559Z,2.14
2023-01-17T16:48:57.822Z,2.14
2023-01-17T16:51:26.117Z,2.15
2023-01-17T16:53:54.194Z,2.07
2023-01-17T16:56:22.340Z,2.10
2023-01-17T16:58:53.537Z,2.09
2023-01-17T17:01:23.214Z,2.09
2023-01-17T17:03:51.554Z,1.99
2023-01-17T17:06:22.884Z,1.96
2023-01-17T17:08:52.700Z,1.99
2023-01-17T17:11:23.397Z,1.95
2023-01-17T17:13:55.608Z,1.86
2023-01-17T17:16:30.024Z,1.92
2023-01-17T17:18:59.869Z,1.89
2023-01-17T17:21:29.337Z,1.84
2023-01-17T17:23:59.216Z,1.86
2023-01-17T17:26:29.065Z,1.79
2023-01-17T17:28:57.246Z,1.80
2023-01-17T17:31:27.655Z,1.75
2023-01-17T17:33:59.548Z,1.64
2023-01-17T17:36:27.826Z,1.66
2023-01-17T17:38:56.424Z,1.64
2023-01-17T17:41:26.128Z,1.58
2023-01-17T17:43:54.498Z,1.59
2023-01-17T17:46:24.873Z,1.52
2023-01-17T17:48:54.786Z,1.53
2023-01-17T17:51:27.941Z,1.55
2023-01-17T17:53:57.117Z,1.53
2023-01-17T17:56:25.479Z,1.45
2023-01-17T17:58:56.514Z,1.48
2023-01-17T18:01:24.995Z,1.46
2023-01-17T18:03:57.065Z,1.40
2023-01-17T18:06:25.815Z,1.46
2023-01-17T18:08:54.218Z,1.42
2023-01-17T18:11:24.735Z,1.37
2023-01-17T18:13:55.009Z,1.40
2023-01-17T18:16:25.449Z,1.36
2023-01-17T18:18:58.445Z,1.32
2023-01-17T18:21:29.414Z,1.31
2023-01-17T18:23:59.891Z,1.31
2023-01-17T18:26:29.639Z,1.24
2023-01-17T18:28:59.304Z,1.23
2023-01-17T18:31:29.102Z,1.12
2023-01-17T18:34:00.896Z,1.17
2023-01-17T18:36:29.654Z,1.17
2023-01-17T18:38:58.465Z,1.08
2023-01-17T18:41:28.740Z,1.05
2023-01-17T18:43:57.708Z,1.04
2023-01-17T18:46:27.338Z,1.02
2023-01-17T18:48:59.122Z,0.95
2023-01-17T18:51:29.564Z,0.98
2023-01-17T18:53:58.143Z,0.93
2023-01-17T18:56:31.013Z,0.94
2023-01-17T18:58:59.496Z,0.92
2023-01-17T19:01:28.992Z,0.96
2023-01-17T19:04:00.571Z,0.89
2023-01-17T19:06:30.439Z,0.92
2023-01-17T19:08:59.829Z,0.90
2023-01-17T19:11:29.231Z,0.89
2023-01-17T19:13:58.068Z,0.82
2023-01-17T19:16:29.730Z,0.85
2023-01-17T19:19:03.385Z,0.84
2023-01-17T19:21:35.109Z,0.78
2023-01-17T19:24:03.321Z,0.83
2023-01-17T19:26:31.594Z,0.80
2023-01-17T19:29:00.479Z,0.76
2023-01-17T19:31:30.837Z,0.79
2023-01-17T19:34:01.656Z,0.80
2023-01-17T19:36:33.906Z,0.75
2023-01-17T19:39:06.542Z,0.80
2023-01-17T19:42:02.774Z,0.72
2023-01-17T19:44:29.604Z,0.78
2023-01-17T19:46:57.913Z,0.77
2023-01-17T19:49:27.540Z,0.79
2023-01-17T19:51:55.779Z,0.75
2023-01-17T19:54:24.163Z,0.77
2023-01-17T19:56:52.745Z,0.77
2023-01-17T19:59:22.738Z,0.74
2023-01-17T20:01:50.962Z,0.74
2023-01-17T20:04:21.585Z,0.73
2023-01-17T20:06:51.279Z,0.70
2023-01-17T20:09:19.304Z,0.67
2023-01-17T20:11:49.090Z,0.62
2023-01-17T20:14:17.795Z,0.67
2023-01-17T20:16:47.641Z,0.63
2023-01-17T20:19:15.851Z,0.66
2023-01-17T20:21:46.373Z,0.65
2023-01-17T20:24:16.969Z,0.66
2023-01-17T20:26:45.077Z,0.68
2023-01-17T20:29:15.405Z,0.66
2023-01-17T20:31:45.591Z,0.68
2023-01-17T20:34:19.702Z,0.68
2023-01-17T20:36:51.028Z,0.66
2023-01-17T20:39:22.036Z,0.66
2023-01-17T20:41:51.650Z,0.63
2023-01-17T20:44:21.236Z,0.66
2023-01-17T20:46:49.519Z,0.61
2023-01-17T20:49:20.324Z,0.64
2023-01-17T20:51:49.036Z,0.65
2023-01-17T20:54:27.461Z,0.63
2023-01-17T20:56:55.780Z,0.64
2023-01-17T20:59:24.177Z,0.62
2023-01-17T21:01:53.010Z,0.58
2023-01-17T21:04:25.822Z,0.61
2023-01-17T21:06:55.655Z,0.60
2023-01-17T21:09:23.656Z,0.57
2023-01-17T21:11:54.457Z,0.60
2023-01-17T21:14:22.980Z,0.55
2023-01-17T21:16:51.540Z,0.54
2023-01-17T21:19:20.576Z,0.52
2023-01-17T21:21:50.341Z,0.49
2023-01-17T21:24:19.276Z,0.47
2023-01-17T21:26:51.591Z,0.45
2023-01-17T21:29:21.123Z,0.42
2023-01-17T21:31:49.126Z,0.42
2023-01-17T21:34:17.435Z,0.44
2023-01-17T21:36:45.485Z,0.42
2023-01-17T21:39:15.885Z,0.41
2023-01-17T21:41:47.151Z,0.35
2023-01-17T21:44:16.826Z,0.39
2023-01-17T21:46:46.678Z,0.38
2023-01-17T21:49:15.214Z,0.34
2023-01-17T21:52:01.736Z,0.35
2023-01-17T21:54:59.901Z,0.33
2023-01-17T21:57:45.417Z,0.29
2023-01-17T22:00:15.645Z,0.38
2023-01-17T22:02:45.920Z,0.37
2023-01-17T22:05:16.490Z,0.36
2023-01-17T22:08:05.658Z,0.34
2023-01-17T22:10:44.643Z,0.34
2023-01-17T22:13:14.366Z,0.28
2023-01-17T22:15:42.820Z,0.30
2023-01-17T22:18:12.858Z,0.27
2023-01-17T22:20:42.050Z,0.27
2023-01-17T22:23:11.580Z,0.26
2023-01-17T22:25:42.535Z,0.29
2023-01-17T22:28:10.648Z,0.21
2023-01-17T22:30:38.750Z,0.26
2023-01-17T22:33:09.634Z,0.24
2023-01-17T22:35:39.184Z,0.20
2023-01-17T22:38:07.741Z,0.22
2023-01-17T22:40:38.331Z,0.22
2023-01-17T22:43:06.472Z,0.22
2023-01-17T22:45:34.563Z,0.20
2023-01-17T22:48:02.819Z,0.20
2023-01-17T22:50:30.864Z,0.14
2023-01-17T22:53:00.307Z,0.17
2023-01-17T22:55:28.574Z,0.18
2023-01-17T22:57:57.223Z,0.15
2023-01-17T23:00:25.319Z,0.15
2023-01-17T23:02:53.392Z,0.17
2023-01-17T23:05:22.991Z,0.13
2023-01-17T23:07:51.489Z,0.10
2023-01-17T23:10:34.894Z,0.10
2023-01-17T23:13:03.065Z,0.11
2023-01-17T23:15:48.455Z,0.08
2023-01-17T23:18:34.276Z,0.06
2023-01-17T23:21:02.306Z,0.08
2023-01-17T23:23:30.285Z,0.04
2023-01-17T23:26:02.370Z,-0.02
2023-01-17T23:28:29.508Z,0.03
2023-01-17T23:31:05.039Z,0.00
2023-01-17T23:33:33.088Z,0.00
2023-01-17T23:36:01.618Z,0.01
2023-01-17T23:38:31.344Z,0.00
2023-01-17T23:41:23.262Z,0.01
2023-01-17T23:43:52.063Z,-0.03
2023-01-17T23:46:20.052Z,-0.02
2023-01-17T23:48:48.259Z,-0.05
2023-01-17T23:51:16.262Z,-0.06
2023-01-17T23:53:44.345Z,-0.11
2023-01-17T23:56:17.708Z,-0.14
2023-01-17T23:58:46.124Z,-0.17
